createdAt,value
2018-04-19T00:45:53.990Z,7.83
2018-04-19T00:48:27.244Z,8.00
2018-04-19T00:51:00.511Z,8.57
2018-04-19T00:53:33.776Z,11.60
2018-04-19T00:56:07.061Z,9.17
2018-04-19T00:58:40.310Z,7.83
2018-04-19T02:32:18.135Z,9.37
2018-04-19T02:34:51.397Z,9.50
2018-04-19T02:37:24.681Z,10.03
2018-04-19T02:39:57.930Z,9.80
2018-04-19T02:42:31.971Z,8.43
2018-04-19T02:45:05.248Z,7.60
2018-04-19T03:46:12.483Z,8.87
2018-04-19T03:48:45.752Z,10.77
2018-04-19T03:51:19.793Z,9.87
2018-04-19T03:53:53.086Z,10.37
2018-04-19T03:56:26.336Z,9.73
2018-04-19T03:59:00.367Z,8.07
2018-04-19T04:30:53.896Z,9.47
2018-04-19T04:33:27.168Z,9.90
2018-04-19T04:36:00.444Z,10.40
2018-04-19T04:38:33.707Z,9.17
2018-04-19T04:41:07.735Z,8.30
2018-04-19T04:43:41.781Z,11.03
2018-04-19T04:46:15.033Z,8.53
2018-04-19T04:48:48.320Z,8.57
2018-04-19T04:51:22.358Z,8.70
2018-04-19T04:53:55.635Z,8.97
2018-04-19T04:56:29.693Z,10.43
2018-04-19T04:59:03.015Z,8.37
2018-04-19T05:01:36.287Z,7.43
2018-04-19T05:04:09.581Z,8.30
2018-04-19T05:06:42.827Z,7.10
2018-04-19T05:09:16.105Z,9.33
2018-04-19T05:11:49.356Z,8.37
2018-04-19T05:14:22.633Z,8.90
2018-04-19T05:16:55.904Z,10.60
2018-04-19T05:19:29.945Z,8.13
2018-04-19T05:22:03.196Z,8.63
2018-04-19T05:24:37.238Z,10.30
2018-04-19T05:27:10.514Z,9.80
2018-04-19T05:29:44.564Z,8.47
2018-04-19T05:32:17.944Z,9.33
2018-04-19T05:34:51.193Z,9.27
2018-04-19T05:37:24.464Z,9.60
2018-04-19T05:39:57.722Z,9.03
2018-04-19T05:42:30.996Z,7.87
2018-04-19T05:45:04.261Z,11.20
2018-04-19T05:47:37.542Z,8.07
2018-04-19T05:50:10.784Z,8.03
2018-04-19T05:52:44.094Z,10.53
2018-04-19T05:55:17.348Z,9.93
2018-04-19T05:57:50.657Z,11.60
2018-04-19T06:00:24.672Z,9.33
2018-04-19T06:02:57.968Z,10.93
2018-04-19T06:05:32.000Z,9.77
2018-04-19T06:08:37.170Z,10.27
2018-04-19T06:11:10.401Z,7.53
2018-04-19T06:13:43.762Z,7.53
2018-04-19T06:16:17.012Z,10.33
2018-04-19T06:18:50.296Z,7.27
2018-04-19T06:21:24.314Z,9.77
2018-04-19T06:23:57.591Z,7.43
2018-04-19T06:26:31.620Z,8.50
2018-04-19T06:29:04.901Z,11.77
2018-04-19T07:00:54.394Z,9.03
2018-04-19T07:03:27.651Z,7.87
2018-04-19T07:06:01.699Z,7.00
2018-04-19T07:08:34.955Z,6.87
2018-04-19T07:11:08.993Z,10.30
2018-04-19T07:13:42.243Z,8.77
2018-04-19T08:01:51.922Z,5.90
2018-04-19T08:04:25.188Z,5.23
2018-04-19T08:06:59.212Z,8.00
2018-04-19T08:09:32.472Z,4.80
2018-04-19T08:12:05.760Z,5.73
2018-04-19T08:14:39.008Z,4.87
2018-04-19T09:02:43.566Z,5.87
2018-04-19T09:05:16.820Z,5.30
2018-04-19T09:07:50.252Z,5.03
2018-04-19T09:10:23.508Z,5.43
2018-04-19T09:12:56.822Z,5.17
2018-04-19T10:01:06.858Z,2.00
2018-04-19T10:03:45.619Z,4.20
2018-04-19T10:06:18.872Z,4.80
2018-04-19T10:08:52.151Z,3.20
2018-04-19T10:11:25.403Z,3.60
2018-04-19T10:13:59.442Z,4.83
2018-04-19T11:02:04.862Z,3.30
2018-04-19T11:04:38.915Z,5.13
2018-04-19T11:07:12.168Z,3.50
2018-04-19T11:09:45.436Z,7.87
2018-04-19T11:12:18.697Z,7.20
2018-04-19T11:14:51.969Z,7.30
2018-04-19T12:02:56.093Z,5.83
2018-04-19T12:05:29.360Z,5.40
2018-04-19T12:08:02.648Z,9.93
2018-04-19T12:10:36.673Z,7.63
2018-04-19T12:13:09.939Z,7.33
2018-04-19T13:01:15.514Z,7.60
2018-04-19T13:03:49.554Z,11.10
2018-04-19T13:06:22.818Z,13.70
2018-04-19T13:08:56.880Z,9.33
2018-04-19T13:11:30.135Z,7.27
2018-04-19T13:14:03.408Z,8.87
2018-04-19T14:02:08.724Z,9.73
2018-04-19T14:04:42.700Z,9.07
2018-04-19T14:07:15.975Z,7.77
2018-04-19T14:09:49.242Z,10.07
2018-04-19T14:12:22.515Z,10.60
2018-04-19T14:14:55.768Z,11.33
2018-04-19T14:46:44.328Z,5.40
2018-04-19T14:49:17.638Z,6.77
2018-04-19T14:51:50.879Z,5.65
2018-04-19T14:54:24.936Z,9.27
2018-04-19T14:56:58.213Z,9.52
2018-04-19T14:59:31.466Z,8.88
2018-04-19T15:31:22.563Z,5.75
2018-04-19T15:33:55.844Z,7.25
2018-04-19T15:36:29.108Z,3.58
2018-04-19T15:39:03.145Z,3.80
2018-04-19T15:41:36.466Z,3.20
2018-04-19T15:44:10.435Z,4.03
2018-04-19T15:46:43.710Z,7.87
2018-04-19T15:49:16.964Z,5.57
2018-04-19T15:51:50.239Z,5.47
2018-04-19T15:54:23.490Z,4.50
2018-04-19T15:56:56.886Z,7.37
2018-04-19T15:59:30.144Z,4.22
2018-04-19T16:02:03.465Z,6.90
2018-04-19T16:04:36.717Z,4.70
2018-04-19T16:07:09.993Z,4.70
2018-04-19T16:09:43.260Z,5.87
2018-04-19T16:12:16.645Z,6.82
2018-04-19T16:14:49.900Z,4.50
2018-04-19T16:17:23.228Z,5.18
2018-04-19T16:19:56.493Z,5.65
2018-04-19T16:22:29.774Z,4.93
2018-04-19T16:25:03.045Z,5.05
2018-04-19T16:27:37.113Z,6.45
2018-04-19T16:30:10.361Z,3.33
2018-04-19T16:32:43.826Z,7.43
2018-04-19T16:35:18.736Z,5.57
2018-04-19T16:37:52.293Z,3.42
2018-04-19T16:40:25.619Z,3.03
2018-04-19T16:42:59.868Z,5.37
2018-04-19T16:45:33.134Z,3.13
2018-04-19T16:48:06.412Z,4.00
2018-04-19T16:50:39.672Z,4.40
2018-04-19T16:53:12.995Z,2.50
2018-04-19T16:55:47.030Z,4.87
2018-04-19T16:58:20.268Z,4.97
2018-04-19T17:00:57.261Z,4.00
2018-04-19T17:03:31.599Z,4.53
2018-04-19T17:06:05.161Z,5.30
2018-04-19T17:08:38.547Z,4.20
2018-04-19T17:11:11.991Z,7.53
2018-04-19T17:13:45.516Z,5.37
2018-04-19T17:16:18.786Z,5.40
2018-04-19T17:18:52.049Z,5.03
2018-04-19T17:21:26.067Z,3.90
2018-04-19T17:24:00.160Z,4.67
2018-04-19T17:26:33.417Z,2.37
2018-04-19T17:29:06.700Z,4.20
2018-04-19T17:31:39.952Z,4.00
2018-04-19T17:34:13.997Z,4.53
2018-04-19T17:36:47.264Z,3.50
2018-04-19T17:39:21.292Z,4.50
2018-04-19T17:41:54.584Z,3.93
2018-04-19T17:44:27.864Z,4.93
2018-04-19T17:47:01.885Z,6.83
2018-04-19T17:49:35.169Z,2.27
2018-04-19T17:52:08.431Z,4.63
2018-04-19T17:54:41.724Z,5.40
2018-04-19T17:57:15.012Z,6.00
2018-04-19T17:59:49.053Z,6.07
2018-04-19T18:02:23.073Z,5.10
2018-04-19T18:04:56.349Z,8.50
2018-04-19T18:07:29.616Z,3.37
2018-04-19T18:10:02.893Z,5.50
2018-04-19T18:12:36.145Z,5.90
2018-04-19T18:15:10.187Z,5.33
2018-04-19T18:17:43.464Z,6.03
2018-04-19T18:20:17.480Z,4.23
2018-04-19T18:22:50.830Z,2.50
2018-04-19T18:25:24.072Z,6.37
2018-04-19T18:27:57.350Z,2.97
2018-04-19T18:30:31.367Z,3.58
2018-04-19T18:33:05.404Z,6.97
2018-04-19T18:35:38.664Z,3.00
2018-04-19T18:38:12.704Z,4.03
2018-04-19T18:40:45.961Z,8.17
2018-04-19T18:43:20.016Z,4.10
2018-04-19T18:45:53.317Z,4.80
2018-04-19T18:48:26.720Z,4.80
2018-04-19T18:51:00.019Z,2.40
2018-04-19T18:53:33.307Z,3.83
2018-04-19T18:56:06.564Z,3.83
2018-04-19T18:58:39.835Z,3.10
2018-04-19T19:01:13.092Z,3.70
2018-04-19T19:03:46.376Z,4.97
2018-04-19T19:06:19.628Z,4.23
2018-04-19T19:08:53.018Z,6.53
2018-04-19T19:11:26.266Z,5.70
2018-04-19T19:13:59.531Z,7.13
2018-04-19T19:16:32.790Z,6.67
2018-04-19T19:22:18.598Z,4.72
2018-04-19T19:24:51.868Z,6.03
2018-04-19T19:27:25.140Z,5.80
2018-04-19T19:29:58.405Z,5.87
2018-04-19T19:32:32.438Z,6.07
2018-04-19T19:35:05.717Z,5.43
2018-04-19T19:37:39.742Z,5.27
2018-04-19T19:40:13.012Z,5.30
2018-04-19T19:42:47.041Z,4.57
2018-04-19T19:45:20.348Z,4.27
2018-04-19T19:47:53.600Z,2.53
2018-04-19T19:50:26.984Z,3.70
2018-04-19T19:53:00.257Z,4.93
2018-04-19T19:55:33.533Z,4.63
2018-04-19T19:58:06.788Z,5.20
2018-04-19T20:00:40.845Z,4.33
2018-04-19T20:03:14.089Z,3.07
2018-04-19T20:05:47.379Z,4.97
2018-04-19T20:08:20.620Z,4.23
2018-04-19T20:10:53.898Z,4.00
2018-04-19T20:13:27.151Z,5.53
2018-04-19T20:16:00.448Z,6.20
2018-04-19T20:18:33.708Z,4.37
2018-04-19T20:21:06.977Z,4.73
2018-04-19T20:23:40.227Z,4.53
2018-04-19T20:26:13.512Z,2.93
2018-04-19T20:28:46.765Z,3.47
2018-04-19T20:31:20.054Z,5.90
2018-04-19T20:33:53.300Z,5.93
2018-04-19T20:36:26.588Z,4.00
2018-04-19T20:38:59.844Z,3.87
2018-04-19T20:41:33.116Z,3.23
2018-04-19T20:44:06.376Z,6.47
2018-04-19T20:46:39.675Z,3.33
2018-04-19T20:49:12.928Z,5.80
2018-04-19T20:51:46.502Z,2.93
2018-04-19T20:54:19.755Z,3.70
2018-04-19T20:56:53.032Z,5.67
2018-04-19T20:59:26.292Z,6.27
2018-04-19T21:01:59.598Z,6.83
2018-04-19T21:04:33.590Z,4.87
2018-04-19T21:07:06.864Z,5.00
2018-04-19T21:09:40.884Z,5.33
2018-04-19T21:12:14.923Z,5.50
2018-04-19T21:14:48.180Z,5.77
2018-04-19T21:17:22.224Z,6.63
2018-04-19T21:19:55.472Z,5.07
2018-04-19T21:22:28.743Z,6.83
2018-04-19T21:25:01.997Z,7.23
2018-04-19T21:27:35.287Z,6.00
2018-04-19T21:30:08.545Z,6.33
2018-04-19T21:32:41.812Z,6.63
2018-04-19T21:35:15.844Z,9.70
2018-04-19T21:37:49.244Z,5.37
2018-04-19T21:40:22.499Z,4.67
2018-04-19T21:42:55.873Z,5.00
2018-04-19T21:45:29.135Z,4.50
2018-04-19T21:48:08.171Z,3.80
2018-04-19T21:50:42.204Z,6.23
2018-04-19T21:53:16.228Z,4.57
2018-04-19T21:55:49.540Z,5.80
2018-04-19T21:58:23.529Z,5.23
2018-04-19T22:00:56.788Z,4.83
2018-04-19T22:03:30.058Z,5.07
2018-04-19T22:06:03.311Z,5.27
2018-04-19T22:08:36.593Z,5.93
2018-04-19T22:11:09.852Z,5.33
2018-04-19T22:13:43.124Z,7.03
2018-04-19T22:16:17.139Z,5.20
2018-04-19T22:18:50.435Z,5.53
2018-04-19T22:21:23.698Z,4.90
2018-04-19T22:23:56.969Z,6.63
2018-04-19T22:26:30.992Z,4.47
2018-04-19T22:29:05.024Z,4.57
2018-04-19T22:31:38.315Z,4.07
2018-04-19T22:34:11.596Z,5.80
2018-04-19T22:36:44.855Z,4.47
2018-04-19T22:39:18.124Z,5.80
2018-04-19T22:41:51.380Z,6.53
2018-04-19T22:44:24.651Z,4.30
2018-04-19T22:46:58.689Z,3.23
2018-04-19T22:49:31.948Z,4.80
2018-04-19T22:52:05.208Z,5.47
2018-04-19T22:54:38.487Z,5.00
2018-04-19T22:57:11.739Z,7.10
2018-04-19T22:59:45.782Z,5.27
2018-04-19T23:02:19.027Z,5.67
2018-04-19T23:04:52.296Z,7.20
2018-04-19T23:07:25.544Z,9.17
2018-04-19T23:09:58.824Z,7.97
2018-04-19T23:12:32.861Z,7.53
2018-04-19T23:15:06.153Z,6.23
